Time;durP1;ratioP1;P1;durP2;ratioP2;P2;SDS_P1;SDS_P2;PMS_P1;PMS_P2;Temp;Humidity;BMP_temperature;BMP_pressure;BME280_temperature;BME280_humidity;BME280_pressure;Samples;Min_cycle;Max_cycle;Signal;HPM_P1;HPM_P2
2021/10/26 11:34:24;;;;;;;12.32;7.07;;;;;;;;;;5049608;28;20457;-67
2021/10/26 11:36:57;;;;;;;12.85;7.70;;;;;;;;;;5046202;28;20040;-70
2021/10/26 11:39:24;;;;;;;13.35;7.68;;;;;;;;;;5037392;28;20091;-69
2021/10/26 11:41:50;;;;;;;18.52;7.35;;;;;;;;;;5053769;28;20033;-68
2021/10/26 11:44:17;;;;;;;13.23;7.78;;;;;;;;;;5052207;28;20016;-70
2021/10/26 11:46:44;;;;;;;15.98;8.00;;;;;;;;;;5055123;28;20535;-71
2021/10/26 11:49:20;;;;;;;14.55;7.47;;;;;;;;;;5050892;28;20020;-70
2021/10/26 11:51:52;;;;;;;14.65;8.55;;;;;;;;;;5051010;28;20055;-69
2021/10/26 11:54:26;;;;;;;25.42;7.70;;;;;;;;;;5052238;28;20031;-68
2021/10/26 11:56:58;;;;;;;13.38;7.25;;;;;;;;;;5057938;28;20510;-70
2021/10/26 11:59:26;;;;;;;15.77;7.55;;;;;;;;;;5054458;28;20029;-70
2021/10/26 12:01:52;;;;;;;17.20;7.63;;;;;;;;;;5052079;28;20017;-69
2021/10/26 12:04:17;;;;;;;20.42;6.95;;;;;;;;;;5049630;28;20381;-70
2021/10/26 12:06:43;;;;;;;24.63;7.75;;;;;;;;;;5062936;28;20258;-71
2021/10/26 12:09:14;;;;;;;13.27;7.78;;;;;;;;;;5039579;28;20025;-71
2021/10/26 12:11:40;;;;;;;15.70;6.78;;;;;;;;;;5047205;28;20013;-70
2021/10/26 12:14:16;;;;;;;18.77;7.53;;;;;;;;;;5039492;28;20120;-72
2021/10/26 12:17:00;;;;;;;32.38;8.65;;;;;;;;;;5066077;28;20029;-70
2021/10/26 12:19:27;;;;;;;12.98;7.90;;;;;;;;;;5052709;28;20115;-71
2021/10/26 12:21:53;;;;;;;14.05;6.78;;;;;;;;;;5059439;28;20024;-73
2021/10/26 12:24:25;;;;;;;13.32;6.35;;;;;;;;;;5033035;28;20071;-71
2021/10/26 12:27:16;;;;;;;18.52;7.65;;;;;;;;;;5034055;28;20466;-73
2021/10/26 12:29:42;;;;;;;16.13;7.70;;;;;;;;;;5033037;28;20045;-72
2021/10/26 12:32:08;;;;;;;13.63;7.15;;;;;;;;;;5061441;28;20073;-72
2021/10/26 12:34:35;;;;;;;21.42;6.97;;;;;;;;;;5024896;28;20021;-71
2021/10/26 12:37:19;;;;;;;22.27;8.07;;;;;;;;;;5038591;28;20029;-69
2021/10/26 12:39:45;;;;;;;8.07;5.95;;;;;;;;;;5046179;28;20017;-72
2021/10/26 12:42:46;;;;;;;9.75;6.07;;;;;;;;;;5051186;28;20021;-71
2021/10/26 12:45:13;;;;;;;12.68;6.80;;;;;;;;;;4982152;28;20059;-71
2021/10/26 12:47:52;;;;;;;17.67;8.45;;;;;;;;;;5048943;28;20515;-69
2021/10/26 12:50:30;;;;;;;11.10;6.53;;;;;;;;;;5055908;28;20029;-68
2021/10/26 12:53:13;;;;;;;15.20;7.15;;;;;;;;;;5052422;28;20465;-71
2021/10/26 12:55:40;;;;;;;19.27;7.20;;;;;;;;;;5040887;28;20021;-71
2021/10/26 12:58:25;;;;;;;17.08;6.30;;;;;;;;;;5053398;28;20044;-70
2021/10/26 13:00:51;;;;;;;12.18;6.60;;;;;;;;;;5050532;28;20029;-71
2021/10/26 13:03:21;;;;;;;18.02;8.15;;;;;;;;;;5053146;28;20028;-70
2021/10/26 13:05:51;;;;;;;46.05;9.43;;;;;;;;;;5057288;28;20021;-71
2021/10/26 13:08:18;;;;;;;18.98;8.52;;;;;;;;;;5055100;28;20126;-71
2021/10/26 13:10:43;;;;;;;16.27;6.97;;;;;;;;;;5044748;28;20025;-72
2021/10/26 13:13:08;;;;;;;12.50;6.22;;;;;;;;;;5042096;28;20530;-67
2021/10/26 13:15:34;;;;;;;11.45;6.13;;;;;;;;;;5041149;28;20020;-68
2021/10/26 13:18:04;;;;;;;11.55;6.53;;;;;;;;;;5052538;28;20032;-66
2021/10/26 13:20:35;;;;;;;;;;;;;;;;;;5048578;28;20180;-67
2021/10/26 13:23:00;;;;;;;;;;;;;;;;;;5054279;28;19908;-67
2021/10/26 13:25:26;;;;;;;14.53;6.73;;;;;;;;;;5046488;28;19917;-67
2021/10/26 13:27:52;;;;;;;11.32;7.72;;;;;;;;;;5040288;28;20269;-67
2021/10/26 13:30:18;;;;;;;11.85;6.00;;;;;;;;;;5049016;28;20049;-67
2021/10/26 13:32:44;;;;;;;12.48;6.07;;;;;;;;;;5049262;28;20028;-67
2021/10/26 13:35:09;;;;;;;12.75;7.28;;;;;;;;;;5055736;28;20025;-67
2021/10/26 13:37:34;;;;;;;13.13;6.75;;;;;;;;;;5055746;28;20172;-68
2021/10/26 13:40:00;;;;;;;16.20;6.80;;;;;;;;;;5051569;28;20027;-68
2021/10/26 13:42:25;;;;;;;20.02;7.30;;;;;;;;;;5054766;28;20021;-66
2021/10/26 13:44:50;;;;;;;17.05;7.38;;;;;;;;;;5049961;28;20035;-67
2021/10/26 13:47:18;;;;;;;13.50;6.32;;;;;;;;;;5035738;28;20017;-66
2021/10/26 13:49:43;;;;;;;16.20;7.07;;;;;;;;;;5043540;28;20029;-67
2021/10/26 13:52:09;;;;;;;11.98;6.45;;;;;;;;;;5054181;28;20423;-67
2021/10/26 13:54:34;;;;;;;15.88;6.57;;;;;;;;;;5052280;28;20025;-68
2021/10/26 13:56:59;;;;;;;18.92;10.20;;;;;;;;;;5050302;28;20098;-67
2021/10/26 13:59:25;;;;;;;24.55;13.18;;;;;;;;;;5048826;28;20100;-67
2021/10/26 14:01:50;;;;;;;10.23;5.65;;;;;;;;;;5055049;28;20025;-70
2021/10/26 14:04:15;;;;;;;13.18;6.32;;;;;;;;;;5055093;28;20021;-70
2021/10/26 14:06:41;;;;;;;29.15;6.57;;;;;;;;;;5055242;28;20102;-71
2021/10/26 14:09:08;;;;;;;12.63;6.18;;;;;;;;;;5054687;28;20048;-71
2021/10/26 14:11:34;;;;;;;18.20;7.75;;;;;;;;;;5054823;28;20057;-71
2021/10/26 14:13:59;;;;;;;25.00;8.05;;;;;;;;;;5055068;28;20025;-69
2021/10/26 14:16:26;;;;;;;15.30;7.65;;;;;;;;;;5054809;28;20384;-71
2021/10/26 14:18:51;;;;;;;37.92;13.10;;;;;;;;;;5051097;28;20024;-71
2021/10/26 14:21:17;;;;;;;35.70;11.93;;;;;;;;;;5054023;28;20044;-72
2021/10/26 14:23:42;;;;;;;24.13;10.57;;;;;;;;;;5056015;28;20028;-72
2021/10/26 14:26:08;;;;;;;15.07;6.78;;;;;;;;;;5054515;28;20063;-73
2021/10/26 14:28:34;;;;;;;22.88;7.85;;;;;;;;;;5055281;28;20442;-73
2021/10/26 14:31:00;;;;;;;30.90;10.32;;;;;;;;;;5054767;28;20100;-70
2021/10/26 14:33:26;;;;;;;42.05;15.63;;;;;;;;;;5042638;28;20021;-71
2021/10/26 14:35:53;;;;;;;50.63;15.90;;;;;;;;;;5052231;28;20049;-72
2021/10/26 14:54:13;;;;;;;46.78;19.17;;;;;;;;;;5053908;28;20071;-73
2021/10/26 14:56:39;;;;;;;40.00;16.23;;;;;;;;;;5054038;28;20454;-73
2021/10/26 14:59:04;;;;;;;40.30;15.02;;;;;;;;;;5054150;28;20041;-72
2021/10/26 15:01:31;;;;;;;32.70;13.07;;;;;;;;;;5053994;28;20051;-73
2021/10/26 15:03:57;;;;;;;25.52;11.57;;;;;;;;;;5054291;28;20029;-73
2021/10/26 15:06:22;;;;;;;31.00;12.10;;;;;;;;;;5053989;28;20017;-72
2021/10/26 15:08:53;;;;;;;28.90;12.05;;;;;;;;;;5054080;28;20369;-73
2021/10/26 15:11:20;;;;;;;29.77;11.82;;;;;;;;;;5054161;28;20031;-73
2021/10/26 15:13:49;;;;;;;32.20;12.00;;;;;;;;;;5054135;28;20104;-73
2021/10/26 15:16:15;;;;;;;36.05;11.95;;;;;;;;;;5053731;28;20079;-73
2021/10/26 15:18:42;;;;;;;31.92;11.63;;;;;;;;;;5053855;28;20473;-74
2021/10/26 15:21:20;;;;;;;26.88;11.95;;;;;;;;;;5053757;28;20108;-74
2021/10/26 15:34:22;;;;;;;29.83;12.88;;;;;;;;;;5053691;28;20135;-73
2021/10/26 15:36:49;;;;;;;39.85;14.50;;;;;;;;;;5034894;28;20029;-73
2021/10/26 15:39:15;;;;;;;39.17;14.88;;;;;;;;;;5053607;28;20017;-73
2021/10/26 15:41:40;;;;;;;46.65;19.23;;;;;;;;;;5053680;28;20021;-72
2021/10/26 15:44:05;;;;;;;51.00;24.77;;;;;;;;;;5053414;28;20104;-72
2021/10/26 15:46:31;;;;;;;49.97;20.25;;;;;;;;;;5053377;28;20025;-72
2021/10/26 15:48:56;;;;;;;36.47;16.77;;;;;;;;;;5053319;28;20029;-72
2021/10/26 15:51:24;;;;;;;40.15;16.42;;;;;;;;;;5035204;28;20469;-71
2021/10/26 15:53:49;;;;;;;37.08;16.25;;;;;;;;;;5053269;28;20017;-72
2021/10/26 15:56:14;;;;;;;41.28;15.98;;;;;;;;;;5052905;28;20051;-72
2021/10/26 15:58:40;;;;;;;54.50;17.30;;;;;;;;;;5052891;28;20049;-72
2021/10/26 16:01:05;;;;;;;51.15;20.35;;;;;;;;;;5053117;28;20088;-72
2021/10/26 16:03:30;;;;;;;47.70;18.13;;;;;;;;;;5052796;28;20079;-72
2021/10/26 16:06:02;;;;;;;67.35;21.27;;;;;;;;;;5053150;28;20096;-72
2021/10/26 16:08:32;;;;;;;70.60;21.70;;;;;;;;;;5053326;28;20021;-73
2021/10/26 16:11:02;;;;;;;84.18;24.33;;;;;;;;;;5052985;28;20028;-73
2021/10/26 16:13:29;;;;;;;70.32;23.25;;;;;;;;;;5052818;28;20395;-73
2021/10/26 16:15:57;;;;;;;69.32;21.98;;;;;;;;;;5053051;28;20023;-72
2021/10/26 16:18:24;;;;;;;74.80;22.25;;;;;;;;;;5053067;28;20020;-73
2021/10/26 16:20:50;;;;;;;65.68;22.23;;;;;;;;;;5052984;28;20051;-73
2021/10/26 16:23:16;;;;;;;60.28;19.75;;;;;;;;;;5053002;28;20096;-73
2021/10/26 16:25:41;;;;;;;49.35;18.40;;;;;;;;;;5052609;28;20088;-73
2021/10/26 16:28:06;;;;;;;45.70;16.33;;;;;;;;;;5052658;28;20049;-73
2021/10/26 16:30:32;;;;;;;34.97;16.40;;;;;;;;;;5053127;28;20048;-73
2021/10/26 16:32:57;;;;;;;38.88;16.02;;;;;;;;;;5052993;28;20056;-73
2021/10/26 16:35:22;;;;;;;36.95;15.38;;;;;;;;;;5052493;28;20016;-71
2021/10/26 16:37:51;;;;;;;38.35;13.68;;;;;;;;;;5052543;28;20514;-73
2021/10/26 16:40:18;;;;;;;30.75;13.38;;;;;;;;;;5052385;28;20029;-73
2021/10/26 16:43:05;;;;;;;35.97;14.75;;;;;;;;;;5052889;28;20413;-73
2021/10/26 16:45:33;;;;;;;34.70;13.80;;;;;;;;;;5052525;28;20028;-73
2021/10/26 16:47:58;;;;;;;31.25;13.10;;;;;;;;;;5053131;28;20355;-72
2021/10/26 16:50:24;;;;;;;33.70;13.65;;;;;;;;;;5056405;28;20028;-72
2021/10/26 16:52:49;;;;;;;27.52;13.07;;;;;;;;;;5038724;28;20036;-72
2021/10/26 16:55:14;;;;;;;30.55;13.82;;;;;;;;;;5056386;28;20476;-73
2021/10/26 16:57:43;;;;;;;33.97;12.55;;;;;;;;;;5055892;28;20056;-73
2021/10/26 17:00:11;;;;;;;36.22;12.88;;;;;;;;;;5056532;28;20104;-72
2021/10/26 17:02:41;;;;;;;33.50;12.13;;;;;;;;;;5056469;28;20012;-73
2021/10/26 17:05:06;;;;;;;;;;;;;;;;;;5056941;28;20039;-72
2021/10/26 17:07:32;;;;;;;27.10;12.13;;;;;;;;;;5056364;28;19908;-73
2021/10/26 17:09:58;;;;;;;36.55;13.38;;;;;;;;;;5038397;28;20035;-72
2021/10/26 17:12:27;;;;;;;40.03;12.95;;;;;;;;;;5056300;28;20470;-72
2021/10/26 17:14:52;;;;;;;;;;;;;;;;;;5056712;28;20049;-72
2021/10/26 17:17:18;;;;;;;30.08;11.93;;;;;;;;;;5055994;28;19951;-72
2021/10/26 17:19:43;;;;;;;33.92;13.27;;;;;;;;;;5056031;28;20469;-72
2021/10/26 17:22:08;;;;;;;33.10;12.05;;;;;;;;;;5056061;28;20408;-73
2021/10/26 17:24:35;;;;;;;31.95;12.38;;;;;;;;;;5055829;28;20074;-72
2021/10/26 17:27:01;;;;;;;30.23;12.25;;;;;;;;;;5055877;28;20082;-72
2021/10/26 17:29:26;;;;;;;27.83;11.65;;;;;;;;;;5055991;28;20021;-71
2021/10/26 17:31:51;;;;;;;30.10;11.68;;;;;;;;;;5055872;28;20024;-71
2021/10/26 17:34:17;;;;;;;24.33;11.30;;;;;;;;;;5055911;28;20408;-70
2021/10/26 17:36:43;;;;;;;30.42;11.98;;;;;;;;;;5055670;28;20135;-72
2021/10/26 17:39:08;;;;;;;23.27;10.15;;;;;;;;;;5055401;28;20025;-72
2021/10/26 17:41:35;;;;;;;27.48;10.95;;;;;;;;;;5055843;28;20481;-71
2021/10/26 17:44:01;;;;;;;27.80;10.65;;;;;;;;;;5055931;28;20408;-72
2021/10/26 17:46:29;;;;;;;23.52;10.13;;;;;;;;;;5055288;28;20036;-71
2021/10/26 17:48:56;;;;;;;18.40;10.23;;;;;;;;;;5055623;28;20017;-71
2021/10/26 17:51:22;;;;;;;24.88;10.27;;;;;;;;;;5055230;28;20405;-71
2021/10/26 17:53:48;;;;;;;19.55;9.80;;;;;;;;;;5055648;28;20027;-71
2021/10/26 17:56:14;;;;;;;22.10;9.15;;;;;;;;;;5055007;28;20431;-72
2021/10/26 17:58:42;;;;;;;23.98;10.25;;;;;;;;;;5054448;28;20087;-72
2021/10/26 18:01:09;;;;;;;27.80;10.27;;;;;;;;;;5055071;28;20024;-72
2021/10/26 18:03:36;;;;;;;25.85;10.23;;;;;;;;;;5055253;28;20027;-72
2021/10/26 18:06:03;;;;;;;22.90;10.75;;;;;;;;;;5055181;28;20045;-72
2021/10/26 18:08:28;;;;;;;21.13;9.32;;;;;;;;;;5055027;28;20083;-72
2021/10/26 18:10:54;;;;;;;20.50;9.50;;;;;;;;;;5055221;28;20021;-72
2021/10/26 18:13:20;;;;;;;22.58;10.57;;;;;;;;;;5055090;28;20520;-72
2021/10/26 18:15:47;;;;;;;23.48;10.25;;;;;;;;;;5055114;28;20025;-72
2021/10/26 18:18:12;;;;;;;40.22;11.95;;;;;;;;;;5036915;28;20489;-71
2021/10/26 18:20:39;;;;;;;41.63;11.75;;;;;;;;;;5055273;28;20060;-72
2021/10/26 18:23:04;;;;;;;30.75;13.07;;;;;;;;;;5055011;28;20421;-72
2021/10/26 18:25:31;;;;;;;32.15;12.10;;;;;;;;;;5054542;28;20025;-72
2021/10/26 18:27:57;;;;;;;21.77;10.65;;;;;;;;;;5054773;28;20082;-72
2021/10/26 18:30:23;;;;;;;24.00;10.95;;;;;;;;;;5054852;28;20021;-72
2021/10/26 18:32:51;;;;;;;26.27;11.90;;;;;;;;;;5055071;28;20017;-72
2021/10/26 18:35:17;;;;;;;42.23;13.13;;;;;;;;;;5054675;28;20021;-71
2021/10/26 18:37:43;;;;;;;34.90;14.27;;;;;;;;;;5054570;28;20476;-72
2021/10/26 18:40:11;;;;;;;38.75;14.77;;;;;;;;;;5054635;28;20037;-72
2021/10/26 18:42:40;;;;;;;32.38;14.60;;;;;;;;;;5054669;28;20067;-72
2021/10/26 18:45:17;;;;;;;33.80;11.80;;;;;;;;;;5054525;28;20529;-72
2021/10/26 18:47:45;;;;;;;29.08;12.15;;;;;;;;;;5054704;28;20060;-72
2021/10/26 18:50:12;;;;;;;32.58;12.73;;;;;;;;;;5054382;28;20059;-72
2021/10/26 18:52:37;;;;;;;30.30;12.90;;;;;;;;;;5054571;28;20024;-71
2021/10/26 18:55:03;;;;;;;30.63;13.38;;;;;;;;;;5054239;28;20111;-72
2021/10/26 18:57:28;;;;;;;31.42;14.60;;;;;;;;;;5053829;28;20049;-72
2021/10/26 18:59:54;;;;;;;30.83;14.38;;;;;;;;;;5054218;28;20059;-71
2021/10/26 19:02:19;;;;;;;30.08;13.80;;;;;;;;;;5054098;28;20096;-71
2021/10/26 19:04:44;;;;;;;39.08;15.32;;;;;;;;;;5054273;28;20433;-71
2021/10/26 19:07:11;;;;;;;44.67;15.50;;;;;;;;;;5054220;28;20025;-71
2021/10/26 19:09:37;;;;;;;32.05;14.45;;;;;;;;;;5053987;28;20481;-70
2021/10/26 19:12:02;;;;;;;36.72;15.00;;;;;;;;;;5053264;28;20025;-72
2021/10/26 19:14:28;;;;;;;31.23;13.15;;;;;;;;;;5053840;28;20025;-70
2021/10/26 19:16:55;;;;;;;31.48;13.68;;;;;;;;;;5053802;28;20056;-71
2021/10/26 19:19:22;;;;;;;39.08;15.98;;;;;;;;;;5053910;28;20358;-71
2021/10/26 19:21:47;;;;;;;37.38;13.75;;;;;;;;;;5053556;28;20021;-71
2021/10/26 19:24:13;;;;;;;32.58;14.25;;;;;;;;;;5053406;28;20092;-70
2021/10/26 19:26:39;;;;;;;35.92;15.50;;;;;;;;;;5053797;28;20009;-71
2021/10/26 19:29:05;;;;;;;33.53;15.95;;;;;;;;;;5053765;28;20098;-71
2021/10/26 19:31:31;;;;;;;34.08;15.95;;;;;;;;;;5053557;28;20091;-71
2021/10/26 19:33:56;;;;;;;35.05;15.10;;;;;;;;;;5053680;28;20122;-71
2021/10/26 19:36:22;;;;;;;36.05;16.33;;;;;;;;;;5053471;28;20039;-71
2021/10/26 19:38:48;;;;;;;39.80;17.58;;;;;;;;;;5053405;28;20086;-71
2021/10/26 19:41:13;;;;;;;28.58;15.35;;;;;;;;;;5053490;28;20497;-71
2021/10/26 19:43:38;;;;;;;69.38;16.83;;;;;;;;;;5053680;28;20092;-71
2021/10/26 19:46:04;;;;;;;33.55;14.98;;;;;;;;;;5053416;28;20029;-71
2021/10/26 19:48:30;;;;;;;34.40;15.32;;;;;;;;;;5053492;28;20485;-71
2021/10/26 19:50:56;;;;;;;35.70;15.73;;;;;;;;;;5053435;28;20017;-71
2021/10/26 19:53:21;;;;;;;35.20;14.25;;;;;;;;;;5053109;28;20377;-71
2021/10/26 19:55:46;;;;;;;33.90;15.65;;;;;;;;;;5053172;28;20031;-71
2021/10/26 19:58:12;;;;;;;36.92;15.88;;;;;;;;;;5052913;28;20448;-71
2021/10/26 20:00:37;;;;;;;45.10;17.05;;;;;;;;;;5052977;28;20029;-72
2021/10/26 20:03:02;;;;;;;46.13;15.90;;;;;;;;;;5053223;28;20043;-71
2021/10/26 20:05:28;;;;;;;40.45;16.23;;;;;;;;;;5053141;28;20017;-71
2021/10/26 20:07:53;;;;;;;39.78;16.90;;;;;;;;;;5053109;28;20021;-71
2021/10/26 20:10:18;;;;;;;40.85;15.65;;;;;;;;;;5052827;28;20025;-70
2021/10/26 20:12:45;;;;;;;43.65;16.80;;;;;;;;;;5052962;28;20020;-71
2021/10/26 20:15:11;;;;;;;34.40;15.63;;;;;;;;;;5052899;28;20035;-71
2021/10/26 20:17:36;;;;;;;37.33;15.98;;;;;;;;;;5052924;28;20099;-71
2021/10/26 20:20:08;;;;;;;40.80;16.42;;;;;;;;;;5052976;28;20025;-72
2021/10/26 20:25:34;;;;;;;38.47;17.40;;;;;;;;;;5028522;28;20037;-72
2021/10/26 20:30:44;;;;;;;37.30;16.55;;;;;;;;;;5052857;28;20070;-72
2021/10/26 20:33:09;;;;;;;31.83;16.63;;;;;;;;;;5052841;28;20049;-72
2021/10/26 20:35:35;;;;;;;42.88;17.88;;;;;;;;;;5052633;28;20052;-72
2021/10/26 20:38:00;;;;;;;34.35;16.45;;;;;;;;;;5052321;28;20053;-71
2021/10/26 20:40:25;;;;;;;33.28;17.08;;;;;;;;;;5052631;28;20436;-71
2021/10/26 20:42:51;;;;;;;31.83;17.20;;;;;;;;;;5052571;28;20017;-71
2021/10/26 20:45:16;;;;;;;40.47;17.92;;;;;;;;;;5052455;28;20021;-71
2021/10/26 20:47:42;;;;;;;41.30;18.08;;;;;;;;;;5052693;28;20025;-72
2021/10/26 20:50:11;;;;;;;40.20;18.13;;;;;;;;;;5052339;28;20021;-72
2021/10/26 20:52:39;;;;;;;35.90;18.35;;;;;;;;;;5052444;28;20025;-72
2021/10/26 20:55:06;;;;;;;37.50;16.52;;;;;;;;;;5051924;28;20029;-72
2021/10/26 20:57:31;;;;;;;37.30;17.92;;;;;;;;;;5052006;28;20485;-73
2021/10/26 20:59:57;;;;;;;41.60;18.10;;;;;;;;;;5052578;28;20032;-72
2021/10/26 21:02:22;;;;;;;36.08;17.70;;;;;;;;;;5052495;28;20017;-72
2021/10/26 21:04:48;;;;;;;45.35;18.95;;;;;;;;;;5052379;28;20043;-72
2021/10/26 21:07:13;;;;;;;37.80;16.85;;;;;;;;;;5052213;28;20060;-72
2021/10/26 21:09:38;;;;;;;31.98;16.98;;;;;;;;;;5052358;28;20021;-72
2021/10/26 21:12:04;;;;;;;33.60;16.83;;;;;;;;;;5052198;28;20086;-72
2021/10/26 21:14:29;;;;;;;36.88;16.95;;;;;;;;;;5052290;28;20068;-72
2021/10/26 21:16:54;;;;;;;29.52;14.77;;;;;;;;;;5052289;28;20045;-72
2021/10/26 21:19:20;;;;;;;32.58;15.50;;;;;;;;;;5052043;28;20017;-71
2021/10/26 21:21:45;;;;;;;33.50;18.02;;;;;;;;;;5052426;28;20014;-72
2021/10/26 21:24:11;;;;;;;39.33;17.88;;;;;;;;;;5052091;28;20021;-72
2021/10/26 21:26:37;;;;;;;42.47;17.88;;;;;;;;;;5052256;28;20032;-72
2021/10/26 21:29:04;;;;;;;35.60;16.90;;;;;;;;;;5052216;28;20020;-72
2021/10/26 21:31:31;;;;;;;39.78;16.40;;;;;;;;;;5052206;28;20017;-72
2021/10/26 21:34:09;;;;;;;35.85;17.95;;;;;;;;;;5052325;28;20036;-72
2021/10/26 21:39:01;;;;;;;34.70;16.02;;;;;;;;;;5055610;28;20037;-72
2021/10/26 21:41:26;;;;;;;34.30;17.15;;;;;;;;;;5055764;28;20013;-71
2021/10/26 21:43:52;;;;;;;36.92;16.58;;;;;;;;;;5055711;28;20574;-71
2021/10/26 21:46:17;;;;;;;32.75;15.98;;;;;;;;;;5055229;28;20032;-71
2021/10/26 21:48:42;;;;;;;31.00;16.30;;;;;;;;;;5055434;28;20021;-71
2021/10/26 21:51:08;;;;;;;37.60;16.25;;;;;;;;;;5055455;28;20067;-71
2021/10/26 21:53:33;;;;;;;41.13;18.88;;;;;;;;;;5055440;28;20033;-72
2021/10/26 21:55:58;;;;;;;34.50;16.63;;;;;;;;;;5054679;28;20422;-72
2021/10/26 21:58:24;;;;;;;35.88;17.13;;;;;;;;;;5054798;28;20508;-70
2021/10/26 22:00:49;;;;;;;35.28;17.42;;;;;;;;;;5055336;28;20025;-71
2021/10/26 22:03:15;;;;;;;40.10;18.38;;;;;;;;;;5054916;28;20487;-71
2021/10/26 22:05:40;;;;;;;37.38;17.13;;;;;;;;;;5055555;28;20027;-71
2021/10/26 22:08:05;;;;;;;36.47;18.38;;;;;;;;;;5055150;28;20029;-71
2021/10/26 22:10:31;;;;;;;34.33;17.48;;;;;;;;;;5055185;28;20104;-71
2021/10/26 22:12:56;;;;;;;33.75;15.77;;;;;;;;;;5055132;28;20027;-71
2021/10/26 22:15:21;;;;;;;33.72;16.10;;;;;;;;;;5054974;28;20025;-71
2021/10/26 22:17:47;;;;;;;37.40;16.85;;;;;;;;;;5054896;28;20028;-71
2021/10/26 22:20:14;;;;;;;34.72;16.98;;;;;;;;;;5055006;28;20043;-71
2021/10/26 22:22:39;;;;;;;37.42;17.60;;;;;;;;;;5054911;28;20495;-71
2021/10/26 22:25:05;;;;;;;37.97;16.63;;;;;;;;;;5054269;28;20052;-72
2021/10/26 22:27:31;;;;;;;38.95;16.15;;;;;;;;;;5054898;28;20108;-72
2021/10/26 22:29:56;;;;;;;39.17;18.17;;;;;;;;;;5054839;28;20013;-73
2021/10/26 22:32:21;;;;;;;41.38;16.48;;;;;;;;;;5054749;28;20473;-71
2021/10/26 22:34:47;;;;;;;43.85;17.45;;;;;;;;;;5055064;28;20029;-71
2021/10/26 22:37:12;;;;;;;35.03;16.58;;;;;;;;;;5054553;28;20045;-71
2021/10/26 22:39:38;;;;;;;40.25;17.90;;;;;;;;;;5054767;28;20355;-71
2021/10/26 22:42:08;;;;;;;34.20;16.52;;;;;;;;;;5054734;28;20024;-71
2021/10/26 22:44:33;;;;;;;43.17;16.88;;;;;;;;;;5054466;28;20441;-71
2021/10/26 22:46:59;;;;;;;40.28;17.95;;;;;;;;;;5053602;28;20021;-71
2021/10/26 22:49:24;;;;;;;32.58;16.42;;;;;;;;;;5054945;28;20022;-71
2021/10/26 22:51:50;;;;;;;34.50;17.27;;;;;;;;;;5054426;28;20043;-71
2021/10/26 22:54:20;;;;;;;37.38;18.67;;;;;;;;;;5053812;28;20048;-71
2021/10/26 22:56:45;;;;;;;33.37;16.57;;;;;;;;;;5054225;28;20520;-72
2021/10/26 22:59:11;;;;;;;37.70;17.67;;;;;;;;;;5054194;28;20021;-71
2021/10/26 23:04:06;;;;;;;38.55;17.55;;;;;;;;;;5029095;28;20508;-68
2021/10/26 23:06:31;;;;;;;41.75;18.35;;;;;;;;;;5066982;28;20035;-67
2021/10/26 23:08:58;;;;;;;34.83;16.83;;;;;;;;;;5074577;28;20365;-67
2021/10/26 23:11:23;;;;;;;35.00;17.10;;;;;;;;;;5073988;28;20105;-66
2021/10/26 23:13:48;;;;;;;36.22;17.92;;;;;;;;;;5073757;28;20067;-67
2021/10/26 23:16:14;;;;;;;34.85;17.13;;;;;;;;;;5056221;28;20019;-68
2021/10/26 23:18:39;;;;;;;38.50;17.02;;;;;;;;;;5073945;28;20021;-68
2021/10/26 23:21:04;;;;;;;39.25;18.27;;;;;;;;;;5074070;28;20016;-67
2021/10/26 23:23:30;;;;;;;40.28;17.80;;;;;;;;;;5055790;28;20377;-67
2021/10/26 23:25:55;;;;;;;38.30;17.42;;;;;;;;;;5073489;28;20059;-68
2021/10/26 23:28:21;;;;;;;41.90;17.98;;;;;;;;;;5073747;28;20047;-68
2021/10/26 23:30:46;;;;;;;34.25;16.48;;;;;;;;;;5073604;28;20026;-67
2021/10/26 23:33:11;;;;;;;36.45;15.85;;;;;;;;;;5073388;28;20020;-68
2021/10/26 23:35:37;;;;;;;36.83;18.23;;;;;;;;;;5073477;28;20059;-69
2021/10/26 23:38:02;;;;;;;31.30;16.60;;;;;;;;;;5073508;28;20098;-68
2021/10/26 23:40:28;;;;;;;35.70;17.52;;;;;;;;;;5055525;28;20017;-68
2021/10/26 23:42:54;;;;;;;33.63;16.92;;;;;;;;;;5073547;28;20025;-68
2021/10/26 23:45:19;;;;;;;38.45;16.80;;;;;;;;;;5073274;28;20074;-68
2021/10/26 23:47:45;;;;;;;33.72;17.27;;;;;;;;;;5073207;28;20008;-67
2021/10/26 23:50:10;;;;;;;33.40;16.75;;;;;;;;;;5073177;28;20366;-67
2021/10/26 23:52:36;;;;;;;36.10;17.55;;;;;;;;;;5073511;28;20047;-68
2021/10/26 23:55:02;;;;;;;41.17;17.80;;;;;;;;;;5073561;28;20027;-67
2021/10/26 23:57:27;;;;;;;34.45;17.25;;;;;;;;;;5055162;28;20032;-67
2021/10/26 23:59:53;;;;;;;35.85;18.23;;;;;;;;;;5072879;28;20142;-67
